createdAt,value
2018-09-06T00:00:31.126Z,72.070312
2018-09-06T00:01:47.049Z,72.668457
2018-09-06T00:03:03.146Z,72.570801
2018-09-06T00:04:19.295Z,72.369385
2018-09-06T00:05:35.328Z,72.369385
2018-09-06T00:06:51.397Z,72.369385
2018-09-06T00:08:07.395Z,72.369385
2018-09-06T00:09:23.675Z,72.808838
2018-09-06T00:10:40.516Z,73.00415
2018-09-06T00:11:56.571Z,72.772217
2018-09-06T00:13:12.513Z,72.869873
2018-09-06T00:14:28.494Z,73.510742
2018-09-06T00:15:44.476Z,73.712158
2018-09-06T00:17:00.438Z,74.11499
2018-09-06T00:18:16.376Z,73.809814
2018-09-06T00:19:32.419Z,73.913574
2018-09-06T00:20:48.574Z,73.577881
2018-09-06T00:22:04.515Z,74.11499
2018-09-06T00:23:20.426Z,74.316406
2018-09-06T00:24:36.344Z,74.212646
2018-09-06T00:25:52.398Z,74.01123
2018-09-06T00:27:08.441Z,73.876953
2018-09-06T00:28:24.364Z,73.675537
2018-09-06T00:29:40.362Z,73.577881
2018-09-06T00:30:56.449Z,73.577881
2018-09-06T00:32:12.480Z,73.577881
2018-09-06T00:33:28.474Z,73.809814
2018-09-06T00:34:44.400Z,74.54834
2018-09-06T00:36:00.382Z,75.091553
2018-09-06T00:37:16.431Z,75.390625
2018-09-06T00:38:32.374Z,75.390625
2018-09-06T00:39:48.310Z,74.749756
2018-09-06T00:41:04.224Z,74.01123
2018-09-06T00:42:20.114Z,73.913574
2018-09-06T00:45:16.845Z,73.712158
2018-09-06T00:46:32.785Z,73.510742
2018-09-06T00:47:48.721Z,73.510742
2018-09-06T00:49:04.601Z,73.950195
2018-09-06T00:50:21.578Z,73.748779
2018-09-06T00:51:37.657Z,73.608398
2018-09-06T00:52:53.575Z,73.406982
2018-09-06T00:54:09.517Z,73.510742
2018-09-06T00:55:26.532Z,73.64502
2018-09-06T00:56:42.616Z,74.047852
2018-09-06T00:57:58.579Z,74.450684
2018-09-06T00:59:14.553Z,74.346924
2018-09-06T01:00:30.555Z,74.145508
2018-09-06T01:01:46.498Z,73.950195
2018-09-06T01:03:02.407Z,73.64502
2018-09-06T01:04:18.330Z,73.64502
2018-09-06T01:05:34.319Z,73.443604
2018-09-06T01:08:30.837Z,73.748779
2018-09-06T01:09:46.829Z,74.249268
2018-09-06T01:11:02.822Z,74.047852
2018-09-06T01:12:18.926Z,73.846436
2018-09-06T01:13:35.069Z,74.047852
2018-09-06T01:14:51.020Z,74.987793
2018-09-06T01:16:06.949Z,75.091553
2018-09-06T01:17:22.931Z,74.786377
2018-09-06T01:18:38.906Z,74.584961
2018-09-06T01:19:54.875Z,74.786377
2018-09-06T01:21:10.915Z,74.688721
2018-09-06T01:22:26.844Z,74.047852
2018-09-06T01:23:42.743Z,74.182129
2018-09-06T01:24:58.705Z,74.688721
2018-09-06T01:26:14.614Z,74.584961
2018-09-06T01:27:30.613Z,74.786377
2018-09-06T01:28:46.516Z,74.487305
2018-09-06T01:30:02.506Z,74.487305
2018-09-06T01:31:18.528Z,74.182129
2018-09-06T01:32:34.452Z,74.285889
2018-09-06T01:33:50.454Z,74.487305
2018-09-06T01:35:06.413Z,74.584961
2018-09-06T01:36:22.483Z,74.182129
2018-09-06T01:37:38.503Z,74.084473
2018-09-06T01:38:54.444Z,74.047852
2018-09-06T01:40:10.348Z,74.182129
2018-09-06T01:41:26.466Z,74.285889
2018-09-06T01:42:42.513Z,74.487305
2018-09-06T01:43:58.469Z,75.024414
2018-09-06T01:45:14.366Z,75.22583
2018-09-06T01:46:30.288Z,75.22583
2018-09-06T01:47:46.222Z,75.22583
2018-09-06T01:49:02.116Z,75.128174
2018-09-06T01:51:58.931Z,75.024414
2018-09-06T01:53:14.834Z,74.786377
2018-09-06T01:54:31.701Z,75.024414
2018-09-06T01:55:47.731Z,74.987793
2018-09-06T01:57:03.837Z,75.128174
2018-09-06T01:58:19.733Z,75.531006
2018-09-06T01:59:35.658Z,75.427246
2018-09-06T02:00:51.561Z,75.427246
2018-09-06T02:02:07.505Z,75.128174
2018-09-06T02:03:23.431Z,75.024414
2018-09-06T02:04:39.355Z,74.822998
2018-09-06T02:05:55.364Z,74.725342
2018-09-06T02:07:11.286Z,74.822998
2018-09-06T02:08:27.266Z,74.822998
2018-09-06T02:09:43.315Z,74.725342
2018-09-06T02:10:59.202Z,74.926758
2018-09-06T02:12:15.253Z,74.926758
2018-09-06T02:13:31.198Z,74.822998
2018-09-06T02:14:47.157Z,74.621582
2018-09-06T02:16:03.068Z,74.822998
2018-09-06T02:17:19.012Z,74.822998
2018-09-06T02:18:35.091Z,74.725342
2018-09-06T02:19:51.008Z,75.024414
2018-09-06T02:21:07.055Z,74.926758
2018-09-06T02:22:22.998Z,74.822998
2018-09-06T02:23:39.050Z,75.32959
2018-09-06T02:24:55.007Z,75.665283
2018-09-06T02:26:10.990Z,75.964355
2018-09-06T02:27:26.938Z,76.165771
2018-09-06T02:28:42.839Z,75.762939
2018-09-06T02:29:58.779Z,75.32959
2018-09-06T02:31:14.726Z,75.360107
2018-09-06T02:32:30.839Z,75.701904
2018-09-06T02:33:46.793Z,75.360107
2018-09-06T02:35:02.694Z,75.360107
2018-09-06T02:36:18.635Z,74.658203
2018-09-06T02:37:34.609Z,74.755859
2018-09-06T02:38:50.525Z,74.658203
2018-09-06T02:40:06.420Z,74.658203
2018-09-06T02:41:22.467Z,74.456787
2018-09-06T02:42:38.625Z,74.255371
2018-09-06T02:43:54.562Z,74.658203
2018-09-06T02:45:10.485Z,74.353027
2018-09-06T02:46:26.404Z,75.097656
2018-09-06T02:47:42.369Z,75.500488
2018-09-06T02:48:58.325Z,76.141357
2018-09-06T02:50:14.347Z,76.037598
2018-09-06T02:51:30.380Z,76.342773
2018-09-06T02:52:46.305Z,76.141357
2018-09-06T02:54:02.396Z,75.939941
2018-09-06T02:55:18.195Z,75.939941
2018-09-06T02:56:34.152Z,75.598145
2018-09-06T02:57:50.061Z,76.037598
2018-09-06T02:59:06.045Z,76.037598
2018-09-06T03:00:22.026Z,75.836182
2018-09-06T03:01:38.038Z,75.738525
2018-09-06T03:02:54.015Z,75.299072
2018-09-06T03:04:09.969Z,75.537109
2018-09-06T03:05:25.968Z,75.335693
2018-09-06T03:06:41.851Z,75.335693
2018-09-06T03:07:57.801Z,75.335693
2018-09-06T03:09:13.729Z,75.335693
2018-09-06T03:10:29.700Z,75.128174
2018-09-06T03:11:45.649Z,75.128174
2018-09-06T03:13:01.631Z,75.537109
2018-09-06T03:14:17.568Z,75.634766
2018-09-06T03:15:33.568Z,76.177979
2018-09-06T03:16:49.417Z,75.634766
2018-09-06T03:18:05.434Z,75.43335
2018-09-06T03:19:21.315Z,75.634766
2018-09-06T03:20:37.196Z,75.738525
2018-09-06T03:21:53.135Z,75.836182
2018-09-06T03:23:09.108Z,75.836182
2018-09-06T03:24:25.095Z,75.836182
2018-09-06T03:25:40.972Z,76.037598
2018-09-06T03:26:57.105Z,76.239014
2018-09-06T03:28:13.045Z,76.037598
2018-09-06T03:29:29.053Z,75.836182
2018-09-06T03:30:44.995Z,75.738525
2018-09-06T03:32:00.925Z,75.634766
2018-09-06T03:33:16.790Z,75.939941
2018-09-06T03:34:32.690Z,76.037598
2018-09-06T03:35:48.641Z,76.342773
2018-09-06T03:37:04.529Z,76.544189
2018-09-06T03:38:20.750Z,77.185059
2018-09-06T03:39:36.862Z,76.843262
2018-09-06T03:40:52.812Z,76.44043
2018-09-06T03:42:08.769Z,76.44043
2018-09-06T03:43:24.682Z,76.141357
2018-09-06T03:44:40.705Z,76.141357
2018-09-06T03:45:56.785Z,76.141357
2018-09-06T03:47:12.887Z,75.738525
2018-09-06T03:48:28.788Z,75.500488
2018-09-06T03:49:44.732Z,75.634766
2018-09-06T03:51:00.623Z,76.141357
2018-09-06T03:52:16.740Z,76.239014
2018-09-06T03:53:33.622Z,76.239014
2018-09-06T03:54:49.508Z,76.141357
2018-09-06T03:57:45.813Z,75.939941
2018-09-06T03:59:01.715Z,75.836182
2018-09-06T04:00:18.822Z,76.678467
2018-09-06T04:01:34.870Z,77.624512
2018-09-06T04:02:50.811Z,77.423096
2018-09-06T04:04:06.743Z,77.22168
2018-09-06T04:05:22.739Z,76.678467
2018-09-06T04:06:38.892Z,76.678467
2018-09-06T04:07:54.791Z,76.477051
2018-09-06T04:09:10.808Z,76.818848
2018-09-06T04:10:26.787Z,76.715088
2018-09-06T04:11:42.744Z,77.11792
2018-09-06T04:12:58.718Z,77.020264
2018-09-06T04:14:14.724Z,76.477051
2018-09-06T04:15:30.741Z,76.074219
2018-09-06T04:16:46.786Z,76.275635
2018-09-06T04:18:02.817Z,76.177979
2018-09-06T04:20:59.332Z,76.715088
2018-09-06T04:22:15.272Z,76.715088
2018-09-06T04:23:31.272Z,76.617432
2018-09-06T04:24:47.181Z,76.275635
2018-09-06T04:26:03.293Z,75.976562
2018-09-06T04:27:19.244Z,76.312256
2018-09-06T04:28:35.301Z,76.513672
2018-09-06T04:29:51.255Z,76.953125
2018-09-06T04:31:07.245Z,77.020264
2018-09-06T04:32:23.137Z,76.617432
2018-09-06T04:33:39.130Z,76.416016
2018-09-06T04:34:55.027Z,76.11084
2018-09-06T04:36:11.143Z,76.11084
2018-09-06T04:37:27.154Z,76.208496
2018-09-06T04:38:43.088Z,76.312256
2018-09-06T04:39:58.997Z,76.751709
2018-09-06T04:41:14.901Z,76.953125
2018-09-06T04:42:30.826Z,77.496338
2018-09-06T04:43:47.028Z,77.600098
2018-09-06T04:45:02.935Z,77.496338
2018-09-06T04:46:18.965Z,77.801514
2018-09-06T04:47:35.021Z,77.154541
2018-09-06T04:48:51.247Z,76.550293
2018-09-06T04:50:07.297Z,76.245117
2018-09-06T04:53:05.178Z,76.446533
2018-09-06T04:54:22.096Z,76.245117
2018-09-06T04:55:38.255Z,76.446533
2018-09-06T04:56:54.275Z,76.245117
2018-09-06T04:58:10.241Z,76.78833
2018-09-06T04:59:26.259Z,76.751709
2018-09-06T05:00:42.188Z,76.751709
2018-09-06T05:04:54.797Z,76.690674
2018-09-06T05:06:10.718Z,76.78833
2018-09-06T05:07:26.692Z,76.89209
2018-09-06T05:08:42.617Z,76.654053
2018-09-06T05:09:58.736Z,76.245117
2018-09-06T05:11:14.692Z,76.147461
2018-09-06T05:12:30.749Z,75.946045
2018-09-06T05:13:46.719Z,76.147461
2018-09-06T05:15:02.624Z,76.550293
2018-09-06T05:16:18.561Z,76.348877
2018-09-06T05:17:34.485Z,76.654053
2018-09-06T05:18:50.628Z,76.78833
2018-09-06T05:20:06.610Z,76.989746
2018-09-06T05:21:22.642Z,76.550293
2018-09-06T05:22:38.695Z,76.348877
2018-09-06T05:23:54.690Z,76.654053
2018-09-06T05:25:10.653Z,76.446533
2018-09-06T05:28:07.532Z,76.855469
2018-09-06T05:29:23.478Z,76.654053
2018-09-06T05:30:40.482Z,77.258301
2018-09-06T05:31:56.425Z,76.751709
2018-09-06T05:33:12.511Z,76.654053
2018-09-06T05:34:28.478Z,76.654053
2018-09-06T05:35:44.623Z,76.654053
2018-09-06T05:37:00.578Z,76.550293
2018-09-06T05:38:16.599Z,76.654053
2018-09-06T05:39:32.683Z,76.550293
2018-09-06T05:40:48.728Z,77.294922
2018-09-06T05:42:04.647Z,77.392578
2018-09-06T05:43:20.684Z,77.697754
2018-09-06T05:44:36.691Z,76.855469
2018-09-06T05:47:33.588Z,76.348877
2018-09-06T05:48:49.450Z,76.550293
2018-09-06T05:50:05.384Z,76.953125
2018-09-06T05:51:21.416Z,76.953125
2018-09-06T05:52:37.381Z,76.751709
2018-09-06T05:53:53.274Z,76.654053
2018-09-06T05:55:09.242Z,76.245117
2018-09-06T05:56:25.177Z,77.093506
2018-09-06T05:57:41.119Z,77.294922
2018-09-06T05:58:57.023Z,76.855469
2018-09-06T06:00:12.993Z,76.953125
2018-09-06T06:01:28.911Z,76.312256
2018-09-06T06:02:44.887Z,76.00708
2018-09-06T06:04:01.003Z,76.550293
2018-09-06T06:05:17.065Z,76.446533
2018-09-06T06:06:32.913Z,76.953125
2018-09-06T06:07:48.944Z,76.416016
2018-09-06T06:09:04.910Z,76.208496
2018-09-06T06:10:20.949Z,76.617432
2018-09-06T06:11:36.912Z,76.208496
2018-09-06T06:12:52.832Z,76.00708
2018-09-06T06:14:08.731Z,76.208496
2018-09-06T06:15:25.639Z,76.074219
2018-09-06T06:16:41.560Z,76.312256
2018-09-06T06:17:57.586Z,76.513672
2018-09-06T06:20:54.224Z,76.379395
2018-09-06T06:22:10.171Z,76.916504
2018-09-06T06:23:26.134Z,76.580811
2018-09-06T06:24:42.291Z,76.879883
2018-09-06T06:25:58.457Z,76.678467
2018-09-06T06:27:14.515Z,76.678467
2018-09-06T06:28:30.525Z,76.580811
2018-09-06T06:29:46.457Z,76.477051
2018-09-06T06:31:02.348Z,76.580811
2018-09-06T06:32:18.275Z,77.081299
2018-09-06T06:33:34.207Z,77.69165
2018-09-06T06:34:50.177Z,77.490234
2018-09-06T06:36:07.130Z,77.282715
2018-09-06T06:37:23.070Z,76.843262
2018-09-06T06:38:39.029Z,77.044678
2018-09-06T06:39:54.970Z,76.605225
2018-09-06T06:41:11.015Z,76.403809
2018-09-06T06:42:26.946Z,76.708984
2018-09-06T06:43:42.954Z,76.708984
2018-09-06T06:44:59.057Z,76.9104
2018-09-06T06:46:14.988Z,76.806641
2018-09-06T06:49:11.393Z,76.672363
2018-09-06T06:50:27.502Z,77.111816
2018-09-06T06:51:43.383Z,77.172852
2018-09-06T06:52:59.266Z,77.075195
2018-09-06T06:54:16.204Z,77.075195
2018-09-06T06:55:32.159Z,76.77002
2018-09-06T06:56:48.079Z,76.568604
2018-09-06T06:58:04.084Z,76.23291
2018-09-06T06:59:20.015Z,76.031494
2018-09-06T07:00:35.944Z,75.933838
2018-09-06T07:01:51.850Z,75.793457
2018-09-06T07:03:07.861Z,75.897217
2018-09-06T07:04:23.895Z,75.494385
2018-09-06T07:05:39.841Z,75.091553
2018-09-06T07:06:55.890Z,74.987793
2018-09-06T07:08:11.993Z,74.987793
2018-09-06T07:09:27.897Z,74.987793
2018-09-06T07:10:43.820Z,74.987793
2018-09-06T07:11:59.758Z,75.189209
2018-09-06T07:13:15.676Z,74.688721
2018-09-06T07:14:31.554Z,75.091553
2018-09-06T07:15:47.710Z,75.189209
2018-09-06T07:17:03.759Z,74.890137
2018-09-06T07:20:00.447Z,74.487305
2018-09-06T07:21:16.363Z,74.786377
2018-09-06T07:22:32.361Z,75.189209
2018-09-06T07:23:48.554Z,74.890137
2018-09-06T07:25:04.548Z,74.890137
2018-09-06T07:26:20.531Z,74.749756
2018-09-06T07:27:36.465Z,74.6521
2018-09-06T07:28:52.420Z,74.54834
2018-09-06T07:30:08.359Z,74.6521
2018-09-06T07:31:24.505Z,74.853516
2018-09-06T07:32:40.487Z,74.951172
2018-09-06T07:33:56.551Z,74.749756
2018-09-06T07:35:12.752Z,74.54834
2018-09-06T07:36:28.738Z,74.212646
2018-09-06T07:37:44.718Z,74.517822
2018-09-06T07:39:00.623Z,74.414062
2018-09-06T07:40:16.516Z,74.316406
2018-09-06T07:41:32.635Z,74.316406
2018-09-06T07:42:48.506Z,74.11499
2018-09-06T07:44:04.502Z,74.212646
2018-09-06T07:45:20.596Z,74.316406
2018-09-06T07:46:36.659Z,74.212646
2018-09-06T07:47:52.589Z,73.876953
2018-09-06T07:49:08.486Z,73.779297
2018-09-06T07:50:24.393Z,73.4375
2018-09-06T07:51:41.333Z,73.242188
2018-09-06T07:52:57.351Z,73.242188
2018-09-06T07:54:13.321Z,73.303223
2018-09-06T07:55:29.358Z,72.900391
2018-09-06T07:56:45.275Z,72.802734
2018-09-06T07:59:41.897Z,73.303223
2018-09-06T08:00:57.936Z,72.668457
2018-09-06T08:02:13.994Z,72.766113
2018-09-06T08:03:29.871Z,72.503662
2018-09-06T08:04:45.842Z,72.198486
2018-09-06T08:06:01.778Z,72.302246
2018-09-06T08:07:17.820Z,72.705078
2018-09-06T08:08:34.729Z,72.802734
2018-09-06T08:09:50.723Z,72.900391
2018-09-06T08:11:06.692Z,72.601318
2018-09-06T08:12:22.626Z,72.900391
2018-09-06T08:13:38.551Z,72.900391
2018-09-06T08:14:54.617Z,73.00415
2018-09-06T08:16:10.628Z,73.00415
2018-09-06T08:17:26.622Z,73.00415
2018-09-06T08:18:42.573Z,72.900391
2018-09-06T08:19:58.593Z,73.504639
2018-09-06T08:21:14.535Z,73.168945
2018-09-06T08:22:30.500Z,72.601318
2018-09-06T08:23:46.517Z,72.369385
2018-09-06T08:25:02.527Z,72.399902
2018-09-06T08:26:18.521Z,72.399902
2018-09-06T08:27:34.550Z,72.503662
2018-09-06T08:30:31.204Z,72.668457
2018-09-06T08:31:47.201Z,72.369385
2018-09-06T08:33:03.124Z,72.167969
2018-09-06T08:34:19.130Z,72.564697
2018-09-06T08:35:35.219Z,72.668457
2018-09-06T08:36:51.191Z,73.168945
2018-09-06T08:38:07.042Z,73.272705
2018-09-06T08:39:22.939Z,73.809814
2018-09-06T08:40:38.884Z,73.608398
2018-09-06T08:41:54.896Z,73.468018
2018-09-06T08:43:11.373Z,73.370361
2018-09-06T08:44:27.461Z,73.736572
2018-09-06T08:45:43.415Z,73.33374
2018-09-06T08:46:59.330Z,73.132324
2018-09-06T08:48:15.322Z,73.840332
2018-09-06T08:49:31.276Z,74.139404
2018-09-06T08:50:47.280Z,73.638916
2018-09-06T08:52:03.312Z,73.535156
2018-09-06T08:53:19.230Z,73.840332
2018-09-06T08:54:35.238Z,74.035645
2018-09-06T08:55:51.190Z,73.535156
2018-09-06T08:57:07.142Z,73.736572
2018-09-06T08:58:23.130Z,74.035645
2018-09-06T08:59:39.170Z,73.638916
2018-09-06T09:00:55.193Z,74.005127
2018-09-06T09:02:11.349Z,74.005127
2018-09-06T09:03:27.146Z,74.102783
2018-09-06T09:04:43.166Z,74.035645
2018-09-06T09:05:59.080Z,74.139404
2018-09-06T09:07:15.004Z,74.102783
2018-09-06T09:08:30.955Z,73.101807
2018-09-06T09:09:46.950Z,73.303223
2018-09-06T09:11:02.876Z,73.400879
2018-09-06T09:12:18.950Z,73.498535
2018-09-06T09:13:34.941Z,73.638916
2018-09-06T09:14:51.024Z,74.304199
2018-09-06T09:16:07.052Z,73.803711
2018-09-06T09:17:23.064Z,73.803711
2018-09-06T09:18:39.021Z,73.303223
2018-09-06T09:19:54.943Z,73.535156
2018-09-06T09:21:10.867Z,73.400879
2018-09-06T09:22:27.002Z,73.33374
2018-09-06T09:23:42.876Z,74.237061
2018-09-06T09:24:58.875Z,74.005127
2018-09-06T09:26:14.905Z,73.101807
2018-09-06T09:27:30.891Z,72.601318
2018-09-06T09:28:46.812Z,72.265625
2018-09-06T09:30:02.807Z,72.198486
2018-09-06T09:31:18.770Z,72.900391
2018-09-06T09:32:34.817Z,72.698975
2018-09-06T09:33:50.840Z,72.662354
2018-09-06T09:35:06.762Z,72.43042
2018-09-06T09:36:22.724Z,72.064209
2018-09-06T09:37:38.592Z,71.765137
2018-09-06T09:38:54.623Z,72.265625
2018-09-06T09:40:10.564Z,71.929932
2018-09-06T09:41:26.544Z,71.826172
2018-09-06T09:42:42.542Z,71.295166
2018-09-06T09:43:58.552Z,71.594238
2018-09-06T09:45:14.514Z,71.929932
2018-09-06T09:48:31.414Z,70.892334
2018-09-06T09:49:47.437Z,70.495605
2018-09-06T09:51:03.404Z,71.124268
2018-09-06T09:53:21.919Z,71.09375
2018-09-06T09:54:38.046Z,70.794678
2018-09-06T09:55:54.010Z,70.996094
2018-09-06T09:58:50.518Z,70.556641
2018-09-06T10:00:06.485Z,70.6604
2018-09-06T10:01:22.431Z,70.458984
2018-09-06T10:02:38.448Z,70.526123
2018-09-06T10:03:54.459Z,69.592285
2018-09-06T10:05:10.469Z,69.122314
2018-09-06T10:06:26.578Z,69.927979
2018-09-06T10:07:42.482Z,70.324707
2018-09-06T10:08:58.403Z,68.927002
2018-09-06T10:10:14.371Z,68.823242
2018-09-06T10:11:30.319Z,69.122314
2018-09-06T10:12:46.211Z,68.823242
2018-09-06T10:14:02.120Z,69.122314
2018-09-06T10:15:19.207Z,69.32373
2018-09-06T10:16:35.157Z,69.42749
2018-09-06T10:17:51.136Z,69.622803
2018-09-06T10:19:07.042Z,69.226074
2018-09-06T10:20:23.121Z,69.622803
2018-09-06T10:21:39.063Z,69.622803
2018-09-06T10:22:55.078Z,69.927979
2018-09-06T10:24:11.177Z,69.525146
2018-09-06T10:25:27.080Z,69.42749
2018-09-06T10:26:43.011Z,68.792725
2018-09-06T10:27:58.973Z,67.858887
2018-09-06T10:29:14.966Z,66.85791
2018-09-06T10:30:30.919Z,66.259766
2018-09-06T10:31:46.893Z,66.96167
2018-09-06T10:33:02.846Z,66.760254
2018-09-06T10:34:18.818Z,66.96167
2018-09-06T10:35:34.807Z,67.230225
2018-09-06T10:36:50.755Z,66.229248
2018-09-06T10:38:06.659Z,65.960693
2018-09-06T10:39:22.702Z,66.52832
2018-09-06T10:40:38.641Z,66.625977
2018-09-06T10:41:54.543Z,66.394043
2018-09-06T10:43:10.581Z,66.19873
2018-09-06T10:44:26.513Z,66.998291
2018-09-06T10:45:42.500Z,65.869141
2018-09-06T10:46:58.484Z,65.997314
2018-09-06T10:48:14.430Z,66.864014
2018-09-06T10:49:30.400Z,66.333008
2018-09-06T10:50:46.434Z,65.106201
2018-09-06T10:52:02.340Z,63.94043
2018-09-06T10:53:18.275Z,65.563965
2018-09-06T10:54:34.170Z,65.899658
2018-09-06T10:55:50.101Z,65.765381
2018-09-06T10:57:06.003Z,67.095947
2018-09-06T10:58:21.913Z,66.894531
2018-09-06T10:59:37.912Z,67.126465
2018-09-06T11:00:53.853Z,66.998291
2018-09-06T11:02:09.809Z,67.364502
2018-09-06T11:03:25.877Z,66.729736
2018-09-06T11:04:41.775Z,66.534424
2018-09-06T11:05:57.742Z,66.430664
2018-09-06T11:07:13.650Z,66.864014
2018-09-06T11:08:29.542Z,67.230225
2018-09-06T11:09:46.434Z,66.064453
2018-09-06T11:11:02.419Z,67.364502
2018-09-06T11:12:18.328Z,66.833496
2018-09-06T11:13:34.250Z,66.900635
2018-09-06T11:14:50.112Z,65.83252
2018-09-06T11:16:06.078Z,66.833496
2018-09-06T11:17:21.973Z,66.003418
2018-09-06T11:18:37.843Z,65.637207
2018-09-06T11:19:53.893Z,65.936279
2018-09-06T11:21:09.996Z,65.50293
2018-09-06T11:22:25.894Z,65.234375
2018-09-06T11:23:41.691Z,66.333008
2018-09-06T11:24:57.711Z,65.533447
2018-09-06T11:26:13.888Z,65.50293
2018-09-06T11:29:10.680Z,65.673828
2018-09-06T11:30:26.573Z,64.575195
2018-09-06T11:31:42.493Z,64.84375
2018-09-06T11:34:38.930Z,65.240479
2018-09-06T11:35:54.872Z,65.112305
2018-09-06T11:37:10.939Z,64.746094
2018-09-06T11:38:26.888Z,65.142822
2018-09-06T11:39:42.814Z,64.147949
2018-09-06T11:40:58.862Z,63.616943
2018-09-06T11:42:14.774Z,63.818359
2018-09-06T11:43:30.737Z,63.220215
2018-09-06T11:44:46.699Z,62.921143
2018-09-06T11:46:02.646Z,63.549805
2018-09-06T11:47:18.778Z,63.378906
2018-09-06T11:48:34.677Z,63.183594
2018-09-06T11:49:50.597Z,63.079834
2018-09-06T11:51:06.610Z,62.854004
2018-09-06T11:52:22.536Z,62.322998
2018-09-06T11:55:19.398Z,61.92627
2018-09-06T11:56:36.331Z,61.92627
2018-09-06T11:57:52.289Z,61.627197
2018-09-06T11:59:08.221Z,61.499023
2018-09-06T12:00:24.245Z,61.37085
2018-09-06T12:01:40.213Z,60.742188
2018-09-06T12:02:56.130Z,60.473633
2018-09-06T12:04:12.116Z,60.345459
2018-09-06T12:05:28.087Z,61.212158
2018-09-06T12:06:44.099Z,62.432861
2018-09-06T12:08:00.054Z,62.036133
2018-09-06T12:09:16.076Z,59.918213
2018-09-06T12:10:32.077Z,58.825684
2018-09-06T12:11:47.997Z,58.624268
2018-09-06T12:13:03.947Z,60.614014
2018-09-06T12:14:19.911Z,62.335205
2018-09-06T12:15:35.878Z,61.010742
2018-09-06T12:16:51.943Z,61.437988
2018-09-06T12:18:07.898Z,62.530518
2018-09-06T12:19:23.922Z,61.437988
2018-09-06T12:20:39.845Z,61.938477
2018-09-06T12:21:55.801Z,62.005615
2018-09-06T12:23:11.840Z,62.902832
2018-09-06T12:24:28.000Z,62.304688
2018-09-06T12:25:44.232Z,62.005615
2018-09-06T12:27:00.331Z,62.176514
2018-09-06T12:28:16.283Z,61.376953
2018-09-06T12:29:32.345Z,59.393311
2018-09-06T12:30:49.059Z,60.48584
2018-09-06T12:32:05.865Z,60.284424
2018-09-06T12:33:22.310Z,60.687256
2018-09-06T12:34:39.742Z,61.053467
2018-09-06T12:35:55.843Z,60.388184
2018-09-06T12:37:11.813Z,61.352539
2018-09-06T12:38:27.739Z,59.863281
2018-09-06T12:39:43.772Z,58.966064
2018-09-06T12:40:59.749Z,59.735107
2018-09-06T12:42:15.733Z,59.564209
2018-09-06T12:43:31.739Z,60.229492
2018-09-06T12:44:47.704Z,60.559082
2018-09-06T12:46:03.737Z,59.661865
2018-09-06T12:47:19.687Z,59.16748
2018-09-06T12:48:36.189Z,59.039307
2018-09-06T12:49:52.859Z,58.71582
2018-09-06T12:51:08.855Z,58.319092
2018-09-06T12:52:25.481Z,58.911133
2018-09-06T12:53:42.289Z,58.416748
2018-09-06T12:54:58.818Z,58.288574
2018-09-06T12:56:15.424Z,57.666016
2018-09-06T12:57:32.341Z,56.378174
2018-09-06T12:58:48.485Z,55.389404
2018-09-06T13:00:04.471Z,55.511475
2018-09-06T13:01:20.567Z,56.573486
2018-09-06T13:02:36.485Z,55.187988
2018-09-06T13:03:52.557Z,55.682373
2018-09-06T13:05:09.365Z,56.304932
2018-09-06T13:06:25.427Z,56.628418
2018-09-06T13:07:41.379Z,57.055664
2018-09-06T13:08:57.384Z,58.642578
2018-09-06T13:10:13.419Z,58.740234
2018-09-06T13:11:29.356Z,58.343506
2018-09-06T13:12:45.317Z,58.587646
2018-09-06T13:14:01.415Z,56.970215
2018-09-06T13:15:17.359Z,55.163574
2018-09-06T13:16:33.392Z,54.541016
2018-09-06T13:17:49.338Z,56.152344
2018-09-06T13:19:05.334Z,56.872559
2018-09-06T13:20:21.305Z,57.69043
2018-09-06T13:21:37.290Z,59.735107
2018-09-06T13:22:53.310Z,60.058594
2018-09-06T13:24:09.456Z,62.27417
2018-09-06T13:25:25.472Z,63.537598
2018-09-06T13:26:41.468Z,63.665771
2018-09-06T13:27:57.467Z,63.067627
2018-09-06T13:29:13.497Z,62.841797
2018-09-06T13:30:30.461Z,61.94458
2018-09-06T13:31:46.410Z,61.352539
2018-09-06T13:33:02.351Z,61.450195
2018-09-06T13:34:18.367Z,60.186768
2018-09-06T13:35:34.356Z,61.480713
2018-09-06T13:36:50.348Z,62.573242
2018-09-06T13:38:06.345Z,60.614014
2018-09-06T13:39:22.503Z,60.583496
2018-09-06T13:40:38.590Z,60.15625
2018-09-06T13:41:54.944Z,60.15625
2018-09-06T13:43:10.852Z,60.26001
2018-09-06T13:44:27.141Z,61.248779
2018-09-06T13:45:43.401Z,61.676025
2018-09-06T13:47:00.748Z,62.670898
2018-09-06T13:48:17.025Z,62.969971
2018-09-06T13:49:33.083Z,63.494873
2018-09-06T13:50:49.015Z,63.397217
2018-09-06T13:52:05.131Z,65.484619
2018-09-06T13:53:21.159Z,66.674805
2018-09-06T13:56:17.749Z,67.700195
2018-09-06T13:59:15.176Z,67.834473
2018-09-06T14:00:31.183Z,67.333984
2018-09-06T14:01:47.525Z,67.004395
2018-09-06T14:03:03.665Z,66.705322
2018-09-06T14:04:19.737Z,66.113281
2018-09-06T14:05:35.676Z,66.51001
2018-09-06T14:06:51.646Z,65.979004
2018-09-06T14:08:07.618Z,65.087891
2018-09-06T14:09:23.544Z,64.819336
2018-09-06T14:10:39.534Z,64.422607
2018-09-06T14:11:55.628Z,63.824463
2018-09-06T14:13:11.676Z,63.952637
2018-09-06T14:14:27.653Z,65.148926
2018-09-06T14:15:43.611Z,65.643311
2018-09-06T14:16:59.600Z,66.174316
2018-09-06T14:18:15.618Z,66.772461
2018-09-06T14:19:31.544Z,67.266846
2018-09-06T14:20:47.518Z,67.071533
2018-09-06T14:23:44.430Z,66.375732
2018-09-06T14:25:00.573Z,66.271973
2018-09-06T14:26:16.711Z,66.772461
2018-09-06T14:27:32.747Z,67.169189
2018-09-06T14:28:48.696Z,66.07666
2018-09-06T14:30:04.687Z,66.473389
2018-09-06T14:31:20.592Z,67.004395
2018-09-06T14:32:36.527Z,67.498779
2018-09-06T14:33:52.537Z,67.86499
2018-09-06T14:35:08.581Z,68.792725
2018-09-06T14:36:24.634Z,67.669678
2018-09-06T14:37:40.705Z,65.081787
2018-09-06T14:38:56.814Z,62.689209
2018-09-06T14:40:12.699Z,60.998535
2018-09-06T14:41:28.702Z,59.832764
2018-09-06T14:42:44.756Z,59.307861
2018-09-06T14:44:00.782Z,58.709717
2018-09-06T14:45:16.703Z,57.885742
2018-09-06T14:46:32.741Z,57.189941
2018-09-06T14:53:06.074Z,56.298828
2018-09-06T14:54:22.131Z,56.097412
2018-09-06T14:55:38.145Z,55.895996
2018-09-06T14:56:54.192Z,55.79834
2018-09-06T14:58:28.547Z,55.401611
2018-09-06T14:59:44.594Z,55.303955
2018-09-06T15:01:00.658Z,54.901123
2018-09-06T15:02:16.727Z,55.303955
2018-09-06T15:03:32.969Z,54.278564
2018-09-06T15:04:48.978Z,54.180908
2018-09-06T15:06:05.225Z,53.582764
2018-09-06T15:07:21.341Z,53.485107
2018-09-06T15:08:37.458Z,53.460693
2018-09-06T15:09:53.593Z,52.960205
2018-09-06T15:11:09.916Z,51.171875
2018-09-06T15:12:43.815Z,51.77002
2018-09-06T15:13:59.859Z,51.77002
2018-09-06T15:15:15.800Z,51.470947